Hauptseite
METAR-TAF:

METAR-TAF

Flughäfen :

Flughafen Udon Thani

Udon Thani, Thailand

Breite: 17-23N, Länge: 102-48E, Höhe: 177 m

Beobachtung

Neuester Wetterbericht von vor 20 Minuten, um 06:00 UTC
Wind 6 kt aus Ost/Nordost, variierte zwischen Nord und Ost/Südost
Temperatur 28°C
Luftfeuchtigkeit 42%
Luftdruck 1016 hPa
Sichtweite 10 km oder mehr
keine Wolken unter 1500 m und keine Kumulonimbus oder Gewitterwolken

METAR: VTUD 230600Z 07006KT 010V110 CAVOK 28/14 Q1016 NOSIG

Zeit: 13:20 (06:20 UTC)

Prognose

Neuester Wetterbericht von vor 1 Stunde und 20 Minuten, um 05:00 UTC
Gültige Prognose vom 23 um 06 UTC bis 24 um 06 UTC
Wind 5 kt aus Ost
Sichtweite 10 km oder mehr
keine Wolken unter 1500 m und keine Kumulonimbus oder Gewitterwolken
Übergehend zu
vom 23 um 15 UTC bis 23 um 17 UTC
Wind 10 kt aus Ost
Sichtweite: 9000 m

TAF: VTUD 230500Z 2306/2406 08005KT CAVOK BECMG 2315/2317 09010KT 9000 NSC

Wetterbeobachtungen und Prognosen von mehr als 4000 Flughäfen (METAR und TAF Bericht).

Die verfügbaren Stationen werden durch gelbe und rote Markierungen auf der Karte dargestellt.

Führen Sie die Maus auf sie, um den Namen der Station zu sehen.

Darauf klicken, um die Beobachtung von Wetterbeobachtungen und Prognosen zu sehen.

Um die Karte zu ändern : klicken Sie auf den grünen Tasten mit einem schwarzen Kreuz Zum Vergrößern, auf den grünen Button mit einem Gedankenstrich zu verkleinern, oder auf die grünen Pfeile für benachbarte Karten.


METAR-TAF: